Historyczne dane pomiarowe

Dodano dane terminowe – wersja testowa.

Dane z okresu 1951-2019

Wersja bazy: 1.34 [2019-03-16, lista zmian], aktualizacja planowana na 2019-04-15

Dane meteo z obszaru Polski uzyskane na podstawie danych udostępnionych przez Instytut Meteorologii i Gospodarki Wodnej – Państwowy Instytut Badawczy.

 

Wybierz Datę:    

       

TemperaturaWilgotnośćWiatrCiśnienieOpadyŚniegCzas trwania zjawisk
 Stacja t tx tn tng RH VA  wxwx mslp ppp RRR   cm mm wxwxwxwxwxwxwx
1983-08-14 14.3 19.3 8.5 6.9 71.5- 2.7 3.7---- 0.0------------
1983-08-13 15.2 20.8 12.9 12.4 83.5- 6.0 7.0---- 3.6------------
1983-08-12 20.3 26.1 13.6 11.7 68.8- 0.7 3.3---- 8.5------------
1983-08-11 20.6 26.5 12.7 11.0 69.3- 1.3 3.0---- 0.0------------
1983-08-10 20.1 26.4 12.2 10.7 69.5- 0.3 1.3---- 0.0------------
1983-08-09 21.2 27.0 14.3 12.4 72.0- 0.7 2.3---- 0.0------------
1983-08-08 19.5 26.0 14.9 13.3 83.0- 6.3 2.0---- 18.6------------
1983-08-07 19.8 26.0 15.8 12.9 77.3- 6.0 6.7---- 10.7------------
1983-08-06 16.8 22.1 11.1 9.4 76.0- 1.7 3.0---- 0.0------------
1983-08-05 14.3 18.4 11.5 10.9 80.0- 6.3 3.7---- 0.0------------
1983-08-04 14.4 20.0 13.1 13.5 90.8- 8.0 3.7---- 7.0------------
1983-08-03 20.1 26.6 14.1 15.9 84.3- 8.0 3.0---- 18.7------------
1983-08-02 21.8 29.3 14.4 14.3 55.8- 2.7 3.0---- 18.2------------
1983-08-01 21.0 27.8 10.6 6.9 53.0- 0.0 5.3---- 0.0------------
1983-07-31 18.4 25.6 10.5 7.4 60.5- 0.7 1.7---- 0.0------------
1983-07-30 16.8 22.5 15.1 14.9 75.5- 6.3 7.0---- 0.0------------
1983-07-29 19.6 25.5 12.9 11.4 62.0- 1.7 4.7---- 0.4------------
1983-07-28 23.2 27.8 18.0 15.6 62.0- 4.3 10.3---- 0.0------------
1983-07-27 22.8 31.1 13.1 10.3 63.0- 2.7 2.7---- 0.4------------
1983-07-26 21.0 29.0 13.0 11.3 65.5- 0.7 4.7---- 0.0------------
1983-07-25 15.3 20.6 8.3 5.7 80.5- 7.7 4.0---- 0.2------------
1983-07-24 15.6 19.4 13.4 12.9 85.0- 6.0 2.3---- 0.0------------
1983-07-23 16.5 22.2 12.3 10.4 69.8- 7.3 12.0---- 3.1------------
1983-07-22 14.9 20.6 9.6 7.4 62.5- 5.3 8.7---- 0.4------------
1983-07-21 13.6 18.7 9.1 7.4 65.5- 4.7 6.3---- 0.0------------
1983-07-20 13.9 22.3 11.0 12.2 75.5- 5.3 4.7---- 5.8------------
1983-07-19 23.3 27.3 20.2 18.2 61.3- 5.7 4.7---- 0.0------------
1983-07-18 21.2 27.7 10.1 7.4 61.5- 0.0 4.7---- 0.0------------
1983-07-17 19.0 23.6 12.1 10.1 74.5- 0.3 4.0---- 0.0------------
1983-07-16 17.9 27.5 13.8 9.8 86.5- 7.0 2.7---- 5.5------------
1983-07-15 18.5 27.0 8.7 10.9 69.8- 0.3 4.3---- 0.0------------
1983-07-14 19.7 25.0 16.4 15.8 78.0- 4.7 6.7---- 0.0------------
1983-07-13 18.0 26.7 13.6 11.3 90.0- 4.7 3.3---- 14.0------------
1983-07-12 20.7 27.0 15.9 15.3 78.3- 5.0 4.0---- 3.0------------
1983-07-11 23.0 29.5 14.9 12.7 68.3- 4.7 6.0---- 0.5------------
1983-07-10 22.3 29.5 12.6 9.3 63.3- 2.0 5.3---- 0.0------------
1983-07-09 21.0 28.5 12.1 8.7 66.3- 0.0 2.0---- 0.0------------
1983-07-08 19.3 26.8 8.5 5.0 62.0- 0.0 2.3---- 0.0------------
1983-07-07 20.4 26.5 11.5 9.0 54.8- 0.0 4.0---- 0.0------------
1983-07-06 20.4 27.1 11.8 9.2 64.0- 0.3 2.0---- 0.0------------
1983-07-05 18.2 24.5 10.5 7.4 67.0- 1.0 2.3---- 0.0------------
1983-07-04 21.2 26.0 14.9 12.9 65.3- 1.3 3.0---- 0.0------------
1983-07-03 18.4 24.8 10.2 7.5 63.3- 1.7 3.0---- 0.0------------
1983-07-02 17.1 24.3 13.9 11.9 78.5- 4.0 3.7---- 0.0------------
1983-07-01 19.9 26.3 12.2 8.6 67.5- 0.7 1.7---- 0.0------------
1983-06-30 17.7 23.6 10.8 7.5 57.0- 2.0 4.3---- 0.0------------
1983-06-29 13.8 19.4 7.9 6.0 64.8- 1.7 3.7---- 0.0------------
1983-06-28 16.0 19.3 13.9 14.4 78.0- 5.7 4.7---- 1.5------------
1983-06-27 17.7 26.2 10.7 8.1 76.0- 5.0 3.0---- 21.8------------
1983-06-26 19.8 24.8 10.1 6.4 50.8- 0.0 3.3---- 0.0------------
1983-06-25 20.4 28.5 13.3 7.9 61.5- 2.7 4.3---- 0.0------------
1983-06-24 19.4 25.8 9.9 4.3 53.5- 0.0 3.0---- 0.0------------
1983-06-23 15.0 21.5 6.0 2.1 57.5- 0.0 2.0---- 0.0------------
1983-06-22 13.2 17.9 6.1 5.9 57.0- 0.0 4.0---- 0.0------------
1983-06-21 16.1 24.0 10.3 8.4 64.3- 0.0 7.7---- 0.0------------
1983-06-20 19.0 25.0 11.7 10.0 64.0- 1.3 4.3---- 0.0------------
1983-06-19 16.9 21.5 12.5 11.5 78.5- 5.0 6.3---- 0.0------------
1983-06-18 13.4 16.6 10.0 9.1 82.8- 6.7 5.0---- 0.0------------
1983-06-17 13.4 18.9 7.5 5.7 78.3- 7.0 3.7---- 0.1------------
1983-06-16 13.0 17.7 9.7 9.3 80.5- 7.0 8.0---- 0.5------------
288.5 ms

 

Źródłem pochodzenia danych jest Instytut Meteorologii i Gospodarki Wodnej – Państwowy Instytut Badawczy. Dane Instytutu Meteorologii i Gospodarki Wodnej – Państwowego Instytutu Badawczego zostały przetworzone.

Dane źródłowe można odnaleźć na stronie https://dane.imgw.pl